Time;durP1;ratioP1;P1;durP2;ratioP2;P2;SDS_P1;SDS_P2;PMS_P1;PMS_P2;Temp;Humidity;BMP_temperature;BMP_pressure;BME280_temperature;BME280_humidity;BME280_pressure;Samples;Min_cycle;Max_cycle;Signal;HPM_P1;HPM_P2
2022/02/09 00:00:42;;;;;;;23.57;20.50;;;9.10;99.90;;;;;;5050117;28;20245;-60
2022/02/09 00:03:11;;;;;;;23.20;20.80;;;9.00;99.90;;;;;;5053298;28;20603;-60
2022/02/09 00:05:53;;;;;;;25.40;21.03;;;9.00;99.90;;;;;;5053416;28;20342;-60
2022/02/09 00:08:23;;;;;;;23.20;19.90;;;9.00;99.90;;;;;;5052099;28;20696;-59
2022/02/09 00:10:57;;;;;;;21.50;19.17;;;9.00;99.90;;;;;;5053668;28;20240;-60
2022/02/09 00:13:50;;;;;;;25.57;21.40;;;9.00;99.90;;;;;;5053185;28;20234;-60
2022/02/09 00:16:43;;;;;;;23.17;20.70;;;9.00;99.90;;;;;;5053609;28;20235;-61
2022/02/09 00:19:17;;;;;;;22.20;19.67;;;9.00;99.90;;;;;;5053060;28;20278;-59
2022/02/09 00:22:04;;;;;;;24.10;21.40;;;9.00;99.90;;;;;;5052931;28;20265;-61
2022/02/09 00:24:52;;;;;;;25.00;21.87;;;9.00;99.90;;;;;;5038767;28;20720;-61
2022/02/09 00:30:46;;;;;;;23.33;19.50;;;9.00;99.90;;;;;;5053189;28;20266;-61
2022/02/09 00:33:43;;;;;;;22.67;19.83;;;9.00;99.90;;;;;;5060990;28;20234;-61
2022/02/09 00:36:29;;;;;;;23.90;20.57;;;9.00;99.90;;;;;;5041266;28;20244;-60
2022/02/09 00:42:12;;;;;;;23.57;21.07;;;9.00;99.90;;;;;;5038443;28;20266;-61
2022/02/09 00:59:05;;;;;;;27.63;23.10;;;9.00;99.90;;;;;;5012003;28;20708;-61
2022/02/09 01:44:02;;;;;;;22.87;19.17;;;9.00;99.90;;;;;;5033099;28;20719;-61
2022/02/09 01:57:19;;;;;;;17.60;15.67;;;9.00;99.90;;;;;;5051717;28;20255;-61
2022/02/09 01:59:48;;;;;;;16.80;14.97;;;9.00;99.90;;;;;;5051771;28;20262;-60
2022/02/09 02:02:16;;;;;;;17.67;14.73;;;9.00;99.90;;;;;;5052297;28;20275;-59
2022/02/09 02:04:47;;;;;;;19.57;14.27;;;9.00;99.90;;;;;;5049597;28;20228;-60
2022/02/09 02:07:26;;;;;;;16.20;14.57;;;9.00;99.90;;;;;;5052040;28;20285;-60
2022/02/09 02:10:00;;;;;;;16.97;15.30;;;9.00;99.90;;;;;;5031702;28;20287;-61
2022/02/09 02:12:34;;;;;;;18.23;15.10;;;8.90;99.90;;;;;;5018381;28;20246;-61
2022/02/09 02:15:27;;;;;;;16.90;15.20;;;9.00;99.90;;;;;;5049778;28;20765;-61
2022/02/09 02:17:52;;;;;;;17.33;15.47;;;9.00;99.90;;;;;;5050939;28;20298;-61
2022/02/09 02:20:33;;;;;;;15.07;13.57;;;8.90;99.90;;;;;;5050497;28;20228;-61
2022/02/09 02:23:26;;;;;;;17.13;15.37;;;8.90;99.90;;;;;;5050680;28;20688;-61
2022/02/09 02:26:06;;;;;;;17.47;15.67;;;8.90;99.90;;;;;;5050888;28;20247;-61
2022/02/09 02:28:47;;;;;;;17.37;15.50;;;8.90;99.90;;;;;;5051182;28;20242;-61
2022/02/09 02:31:46;;;;;;;17.67;15.77;;;8.90;99.90;;;;;;5051014;28;20240;-60
2022/02/09 02:57:03;;;;;;;20.73;16.93;;;8.90;99.90;;;;;;5050349;28;20643;-61
2022/02/09 02:59:41;;;;;;;22.17;18.43;;;8.80;99.90;;;;;;5050669;28;20310;-60
2022/02/09 03:10:49;;;;;;;21.50;18.20;;;8.80;99.90;;;;;;5050463;28;20235;-60
2022/02/09 03:13:21;;;;;;;20.83;17.73;;;8.90;99.90;;;;;;5050433;28;20270;-60
2022/02/09 03:15:54;;;;;;;20.17;17.33;;;8.80;99.90;;;;;;5050386;28;20251;-60
2022/02/09 03:18:43;;;;;;;21.93;17.10;;;8.80;99.90;;;;;;5050468;28;20318;-61
2022/02/09 03:21:24;;;;;;;23.00;17.27;;;8.70;99.90;;;;;;5046201;28;20227;-60
2022/02/09 03:23:56;;;;;;;18.30;15.83;;;8.70;99.90;;;;;;5048579;28;20597;-60
2022/02/09 03:26:54;;;;;;;21.37;16.73;;;8.70;99.90;;;;;;5050385;28;20236;-60
2022/02/09 03:43:42;;;;;;;20.43;16.97;;;8.70;99.90;;;;;;5054521;28;20323;-60
2022/02/09 03:49:08;;;;;;;20.07;16.07;;;8.70;99.90;;;;;;5045160;28;20263;-60
2022/02/09 03:51:59;;;;;;;19.93;15.90;;;8.70;99.90;;;;;;5058640;28;20281;-60
2022/02/09 03:54:34;;;;;;;21.60;17.40;;;8.70;99.90;;;;;;5044811;28;20467;-61
2022/02/09 03:57:04;;;;;;;21.43;17.63;;;8.70;99.90;;;;;;5038423;28;20565;-61
2022/02/09 03:59:34;;;;;;;25.20;17.03;;;8.70;99.90;;;;;;5054050;28;20341;-60
2022/02/09 04:02:05;;;;;;;25.27;18.13;;;8.60;99.90;;;;;;5054293;28;20293;-60
2022/02/09 04:04:33;;;;;;;22.93;17.43;;;8.70;99.90;;;;;;5053541;28;20318;-60
2022/02/09 04:07:02;;;;;;;24.27;18.50;;;8.60;99.90;;;;;;5053963;28;20239;-60
2022/02/09 04:09:33;;;;;;;27.90;17.03;;;8.60;99.90;;;;;;5053593;28;20315;-61
2022/02/09 04:12:09;;;;;;;24.07;18.50;;;8.60;99.90;;;;;;5053890;28;20240;-60
2022/02/09 04:14:47;;;;;;;26.03;17.00;;;8.60;99.90;;;;;;5052982;28;20235;-60
2022/02/09 04:17:32;;;;;;;23.83;16.70;;;8.70;99.90;;;;;;5053762;28;20289;-60
2022/02/09 04:20:21;;;;;;;22.33;16.83;;;8.60;99.90;;;;;;5046233;28;20326;-60
2022/02/09 04:36:33;;;;;;;25.23;16.90;;;8.60;99.90;;;;;;5053205;28;20259;-61
2022/02/09 04:39:11;;;;;;;22.93;16.47;;;8.60;99.90;;;;;;5053013;28;20259;-60
2022/02/09 04:42:02;;;;;;;22.37;18.03;;;8.60;99.90;;;;;;5052758;28;20243;-60
2022/02/09 04:44:43;;;;;;;23.63;17.53;;;8.60;99.90;;;;;;5053206;28;20231;-60
2022/02/09 04:47:31;;;;;;;24.87;16.77;;;8.60;99.90;;;;;;5052357;28;20285;-60
2022/02/09 04:50:16;;;;;;;24.43;17.83;;;8.60;99.90;;;;;;5052802;28;20277;-60
2022/02/09 04:52:59;;;;;;;25.03;16.83;;;8.60;99.90;;;;;;5039963;28;20294;-60
2022/02/09 04:58:30;;;;;;;24.83;17.70;;;8.60;99.90;;;;;;5022324;28;20319;-61
2022/02/09 05:01:04;;;;;;;25.60;16.80;;;8.60;99.90;;;;;;5032884;28;20688;-60
2022/02/09 05:25:44;;;;;;;22.53;17.30;;;8.50;99.90;;;;;;5036709;28;20731;-60
2022/02/09 05:28:14;;;;;;;27.33;18.40;;;8.60;99.90;;;;;;5052046;28;20311;-61
2022/02/09 05:30:45;;;;;;;25.07;16.40;;;8.60;99.90;;;;;;5052199;28;20236;-59
2022/02/09 05:33:13;;;;;;;23.50;17.07;;;8.50;99.90;;;;;;5052174;28;20262;-60
2022/02/09 05:35:47;;;;;;;25.43;17.33;;;8.50;99.90;;;;;;5052189;28;20293;-60
2022/02/09 05:38:19;;;;;;;24.10;17.53;;;8.50;99.90;;;;;;5052015;28;20244;-60
2022/02/09 05:40:47;;;;;;;25.90;18.83;;;8.50;99.90;;;;;;5051957;28;20644;-60
2022/02/09 05:43:16;;;;;;;26.87;17.57;;;8.50;99.90;;;;;;5051584;28;20595;-60
2022/02/09 05:46:05;;;;;;;26.00;17.43;;;8.50;99.90;;;;;;5070890;28;20776;-60
2022/02/09 05:51:20;;;;;;;25.07;17.67;;;8.60;99.90;;;;;;5038935;28;20297;-61
2022/02/09 05:54:03;;;;;;;26.30;17.07;;;8.50;99.90;;;;;;5057354;28;20293;-61
2022/02/09 05:56:38;;;;;;;26.43;17.70;;;8.60;99.90;;;;;;5051739;28;20241;-60
2022/02/09 05:59:16;;;;;;;24.43;17.33;;;8.50;99.90;;;;;;5050798;28;20292;-60
2022/02/09 06:01:45;;;;;;;22.60;16.77;;;8.50;99.90;;;;;;5051391;28;20370;-60
2022/02/09 06:04:14;;;;;;;26.57;17.07;;;8.50;99.90;;;;;;5051234;28;20262;-60
2022/02/09 06:06:44;;;;;;;27.80;17.83;;;8.50;99.90;;;;;;5051628;28;20243;-60
2022/02/09 06:09:13;;;;;;;29.73;19.17;;;8.50;99.90;;;;;;5051661;28;20236;-61
2022/02/09 06:11:45;;;;;;;32.47;19.37;;;8.60;99.90;;;;;;5051346;28;20231;-60
2022/02/09 06:14:23;;;;;;;32.57;19.93;;;8.60;99.90;;;;;;5051192;28;20235;-60
2022/02/09 06:19:42;;;;;;;35.77;21.83;;;8.60;99.90;;;;;;5050253;28;20262;-61
2022/02/09 06:22:10;;;;;;;33.37;20.53;;;8.50;99.90;;;;;;5050436;28;20289;-61
2022/02/09 06:24:41;;;;;;;33.37;19.93;;;8.50;99.90;;;;;;5052076;28;20232;-60
2022/02/09 06:27:10;;;;;;;29.13;19.20;;;8.50;99.90;;;;;;5052382;28;20289;-60
2022/02/09 06:29:43;;;;;;;31.50;19.33;;;8.50;99.90;;;;;;5051024;28;20235;-60
2022/02/09 06:32:12;;;;;;;29.10;20.00;;;8.40;99.90;;;;;;5052631;28;20240;-61
2022/02/09 06:34:42;;;;;;;29.27;20.57;;;8.50;99.90;;;;;;5051540;28;20231;-60
2022/02/09 06:37:15;;;;;;;27.53;18.97;;;8.50;99.90;;;;;;5051910;28;20243;-60
2022/02/09 06:39:49;;;;;;;25.13;18.53;;;8.40;99.90;;;;;;5050442;28;20266;-60
2022/02/09 06:42:22;;;;;;;26.17;18.83;;;8.40;99.90;;;;;;5052729;28;20644;-60
2022/02/09 06:44:51;;;;;;;29.13;19.47;;;8.40;99.90;;;;;;5049669;28;20235;-60
2022/02/09 06:47:24;;;;;;;25.73;18.60;;;8.30;99.90;;;;;;5056666;28;20238;-60
2022/02/09 06:49:58;;;;;;;30.50;18.73;;;8.30;99.90;;;;;;5056021;28;20242;-60
2022/02/09 06:52:29;;;;;;;28.23;17.80;;;8.30;99.90;;;;;;5049984;28;20265;-60
2022/02/09 06:55:16;;;;;;;26.37;18.17;;;8.30;99.90;;;;;;5057588;28;20243;-60
2022/02/09 07:00:30;;;;;;;28.03;19.80;;;8.30;99.90;;;;;;5051509;28;20646;-61
2022/02/09 07:02:58;;;;;;;24.53;18.87;;;8.30;99.90;;;;;;5061003;28;20742;-60
2022/02/09 07:05:26;;;;;;;22.70;18.07;;;8.30;99.90;;;;;;5065406;28;20650;-60
2022/02/09 07:07:54;;;;;;;27.80;19.73;;;8.30;99.90;;;;;;5064883;28;20235;-60
2022/02/09 07:10:24;;;;;;;27.27;19.20;;;8.20;99.90;;;;;;5064000;28;20581;-60
2022/02/09 07:12:52;;;;;;;25.00;18.57;;;8.30;99.90;;;;;;5057262;28;20722;-60
2022/02/09 07:15:28;;;;;;;26.53;18.97;;;8.20;99.90;;;;;;5064363;28;20286;-60
2022/02/09 07:17:56;;;;;;;27.93;19.57;;;8.20;99.90;;;;;;5063439;28;20332;-60
2022/02/09 07:20:29;;;;;;;28.23;19.87;;;8.20;99.90;;;;;;5063318;28;20272;-60
2022/02/09 07:22:58;;;;;;;29.50;19.97;;;8.20;99.90;;;;;;5054553;28;20251;-60
2022/02/09 07:25:32;;;;;;;26.10;18.40;;;8.20;99.90;;;;;;5048233;28;20227;-59
2022/02/09 07:28:03;;;;;;;25.27;18.33;;;8.20;99.90;;;;;;5051621;28;20259;-60
2022/02/09 07:30:31;;;;;;;27.27;19.30;;;8.20;99.90;;;;;;5029710;28;20319;-60
2022/02/09 07:33:01;;;;;;;26.33;19.37;;;8.20;99.90;;;;;;5029071;28;20243;-62
2022/02/09 07:35:31;;;;;;;25.10;18.10;;;8.20;99.90;;;;;;5029079;28;20236;-62
2022/02/09 07:38:00;;;;;;;23.43;17.93;;;8.20;99.90;;;;;;5029404;28;20232;-62
2022/02/09 07:40:29;;;;;;;23.77;17.73;;;8.20;99.90;;;;;;5029803;28;20248;-62
2022/02/09 07:43:03;;;;;;;25.67;18.53;;;8.20;99.90;;;;;;5030421;28;20311;-63
2022/02/09 07:46:01;;;;;;;24.10;17.97;;;8.20;99.90;;;;;;5047586;28;20680;-62
2022/02/09 07:48:51;;;;;;;26.03;18.37;;;8.20;99.90;;;;;;5039307;28;20239;-62
2022/02/09 07:54:05;;;;;;;24.13;17.73;;;8.20;99.90;;;;;;5033799;28;20237;-62
2022/02/09 07:56:37;;;;;;;23.60;17.40;;;8.20;99.90;;;;;;5049736;28;20231;-62
2022/02/09 07:59:07;;;;;;;25.07;17.57;;;8.20;99.90;;;;;;5049785;28;20239;-62
2022/02/09 08:01:35;;;;;;;26.17;18.67;;;8.20;99.90;;;;;;5049181;28;20585;-60
2022/02/09 08:04:04;;;;;;;23.90;17.27;;;8.20;99.90;;;;;;5049620;28;20247;-61
2022/02/09 08:06:34;;;;;;;26.43;17.20;;;8.20;99.90;;;;;;5048815;28;20239;-60
2022/02/09 08:09:08;;;;;;;25.17;16.90;;;8.20;99.90;;;;;;5049168;28;20232;-60
2022/02/09 08:11:49;;;;;;;22.50;16.33;;;8.30;99.90;;;;;;5047627;28;20239;-61
2022/02/09 08:28:49;;;;;;;16.73;13.43;;;8.40;99.90;;;;;;5052272;28;20232;-61
2022/02/09 08:34:13;;;;;;;19.93;13.33;;;8.50;99.90;;;;;;5023817;28;20715;-60
2022/02/09 08:36:42;;;;;;;18.27;13.37;;;8.50;99.90;;;;;;5052813;28;20236;-60
2022/02/09 08:39:11;;;;;;;15.40;12.60;;;8.50;99.90;;;;;;5052529;28;20607;-60
2022/02/09 08:41:39;;;;;;;16.83;12.57;;;8.50;99.90;;;;;;5069250;28;20721;-60
2022/02/09 08:44:09;;;;;;;14.83;11.60;;;8.60;99.90;;;;;;5056053;28;20668;-60
2022/02/09 08:46:37;;;;;;;14.93;12.40;;;8.60;99.90;;;;;;5054765;28;20287;-61
2022/02/09 08:49:05;;;;;;;15.20;11.60;;;8.60;99.90;;;;;;5055006;28;20208;-60
2022/02/09 08:51:34;;;;;;;14.00;12.20;;;8.70;99.90;;;;;;5057482;28;20758;-60
2022/02/09 08:54:03;;;;;;;15.67;11.60;;;8.80;99.90;;;;;;5054696;28;20215;-60
2022/02/09 08:56:32;;;;;;;12.80;11.37;;;8.90;99.90;;;;;;5056672;28;20200;-60
2022/02/09 08:59:01;;;;;;;14.73;11.90;;;8.90;99.90;;;;;;5055572;28;20241;-60
2022/02/09 09:01:35;;;;;;;13.53;11.57;;;8.90;99.90;;;;;;5055856;28;20232;-60
2022/02/09 09:04:13;;;;;;;13.33;11.53;;;8.90;99.90;;;;;;5033586;28;20244;-61
2022/02/09 09:06:45;;;;;;;15.33;11.60;;;9.00;99.90;;;;;;5039255;28;20595;-60
2022/02/09 09:09:41;;;;;;;13.17;11.30;;;9.00;99.90;;;;;;5035648;28;20235;-61
2022/02/09 09:15:45;;;;;;;14.00;11.63;;;9.10;99.90;;;;;;5040328;28;20331;-61
2022/02/09 10:02:38;;;;;;;11.13;9.67;;;9.60;99.90;;;;;;5038615;28;20255;-61
2022/02/09 10:30:53;;;;;;;10.70;9.07;;;9.50;99.90;;;;;;5044709;28;20244;-60
2022/02/09 10:34:25;;;;;;;9.47;7.80;;;9.60;99.90;;;;;;5050676;28;20267;-60
2022/02/09 10:36:59;;;;;;;8.67;7.70;;;9.60;99.90;;;;;;5051139;28;20304;-61
2022/02/09 10:39:34;;;;;;;10.63;7.57;;;9.60;99.90;;;;;;5050811;28;20228;-60
2022/02/09 10:42:14;;;;;;;8.23;6.60;;;9.60;99.90;;;;;;5050888;28;20243;-60
2022/02/09 10:44:47;;;;;;;7.73;6.93;;;9.60;99.90;;;;;;5050397;28;20237;-60
2022/02/09 10:47:23;;;;;;;7.93;6.97;;;9.60;99.90;;;;;;5051011;28;20266;-60
2022/02/09 10:50:12;;;;;;;8.43;6.70;;;9.60;99.90;;;;;;5019288;28;20248;-61
2022/02/09 10:52:46;;;;;;;7.90;6.13;;;9.60;99.90;;;;;;5050719;28;20246;-60
2022/02/09 10:55:35;;;;;;;9.90;6.50;;;9.50;99.90;;;;;;5050876;28;20294;-60
2022/02/09 10:58:09;;;;;;;7.70;6.90;;;9.50;99.90;;;;;;5033090;28;20244;-60
2022/02/09 11:00:43;;;;;;;6.97;6.23;;;9.50;99.90;;;;;;5035212;28;20232;-61
2022/02/09 11:03:15;;;;;;;7.37;6.30;;;9.50;99.90;;;;;;5030782;28;20231;-60
2022/02/09 11:05:45;;;;;;;7.93;5.77;;;9.40;99.90;;;;;;5030962;28;20248;-61
2022/02/09 11:08:13;;;;;;;8.07;5.73;;;9.40;99.90;;;;;;5030804;28;20293;-60
2022/02/09 11:10:44;;;;;;;7.30;5.70;;;9.40;99.90;;;;;;5050166;28;20711;-60
2022/02/09 11:13:15;;;;;;;7.90;6.00;;;9.30;99.90;;;;;;5030710;28;20283;-61
2022/02/09 11:15:47;;;;;;;8.57;6.27;;;9.30;99.90;;;;;;5050677;28;20235;-60
2022/02/09 11:18:19;;;;;;;9.57;6.03;;;9.20;99.90;;;;;;5058147;28;20238;-59
2022/02/09 11:21:09;;;;;;;9.10;6.37;;;9.20;99.90;;;;;;5050298;28;20305;-61
2022/02/09 11:23:43;;;;;;;8.73;6.47;;;9.20;99.90;;;;;;5050008;28;20646;-60
2022/02/09 11:26:37;;;;;;;6.97;6.10;;;9.10;99.90;;;;;;5030793;28;20622;-61
2022/02/09 11:29:34;;;;;;;8.10;6.10;;;9.10;99.90;;;;;;5041569;28;20243;-60
2022/02/09 11:41:03;;;;;;;7.17;6.20;;;9.10;99.90;;;;;;5050076;28;20243;-60
2022/02/09 11:43:43;;;;;;;8.53;6.70;;;9.10;99.90;;;;;;5050163;28;20569;-60
2022/02/09 11:46:41;;;;;;;6.80;6.00;;;9.10;99.90;;;;;;5050099;28;20239;-60
2022/02/09 12:00:53;;;;;;;6.73;5.80;;;9.20;99.90;;;;;;5026920;28;20264;-61
2022/02/09 12:09:34;;;;;;;8.03;6.03;;;9.20;99.90;;;;;;5048565;28;20255;-60
2022/02/09 12:12:08;;;;;;;7.17;6.10;;;9.20;99.90;;;;;;5049215;28;20239;-61
2022/02/09 12:14:55;;;;;;;7.10;6.10;;;9.20;99.90;;;;;;5048564;28;21147;-60
2022/02/09 12:17:31;;;;;;;7.10;6.40;;;9.10;99.90;;;;;;5047350;28;20273;-60
2022/02/09 12:20:17;;;;;;;7.00;6.27;;;9.20;99.90;;;;;;5048695;28;20613;-61
2022/02/09 12:22:50;;;;;;;6.47;5.87;;;9.10;99.90;;;;;;5048372;28;20643;-60
2022/02/09 12:25:20;;;;;;;7.40;6.23;;;9.10;99.90;;;;;;5048587;28;20250;-61
2022/02/09 12:27:50;;;;;;;6.93;6.10;;;9.10;99.90;;;;;;5054191;28;20238;-61
2022/02/09 12:30:23;;;;;;;8.00;5.77;;;9.10;99.90;;;;;;5052547;28;20257;-61
2022/02/09 12:32:51;;;;;;;8.00;5.83;;;9.20;99.90;;;;;;5052174;28;20578;-61
2022/02/09 12:35:22;;;;;;;6.40;5.77;;;9.20;99.90;;;;;;5053471;28;20236;-60
2022/02/09 12:37:54;;;;;;;6.47;5.20;;;9.10;99.90;;;;;;5053325;28;20242;-61
2022/02/09 12:40:27;;;;;;;5.80;5.20;;;9.10;99.90;;;;;;5053288;28;20268;-61
2022/02/09 12:42:56;;;;;;;5.17;4.67;;;9.10;99.90;;;;;;5052991;28;20270;-61
2022/02/09 12:45:27;;;;;;;5.77;5.23;;;9.10;99.90;;;;;;5053050;28;20228;-61
2022/02/09 12:47:58;;;;;;;5.83;4.57;;;9.10;99.90;;;;;;5053023;28;20661;-61
2022/02/09 12:50:30;;;;;;;5.13;4.63;;;9.10;99.90;;;;;;5053452;28;20279;-60
2022/02/09 12:52:58;;;;;;;5.47;4.63;;;9.10;99.90;;;;;;5053066;28;20315;-61
2022/02/09 12:55:28;;;;;;;4.90;4.40;;;9.10;99.90;;;;;;5052908;28;20236;-61
2022/02/09 12:58:01;;;;;;;6.77;5.00;;;9.10;99.90;;;;;;5052959;28;20727;-61
2022/02/09 13:00:40;;;;;;;5.43;4.57;;;9.10;99.90;;;;;;5052707;28;20762;-61
2022/02/09 13:03:10;;;;;;;5.77;5.20;;;9.20;99.90;;;;;;5052739;28;20594;-61
2022/02/09 13:05:45;;;;;;;5.43;5.00;;;9.20;99.90;;;;;;5052670;28;20235;-61
2022/02/09 13:08:19;;;;;;;5.10;4.70;;;9.20;99.90;;;;;;5052570;28;20270;-61
2022/02/09 13:10:47;;;;;;;5.00;4.53;;;9.20;99.90;;;;;;5051794;28;20696;-61
2022/02/09 13:13:22;;;;;;;5.67;4.60;;;9.10;99.90;;;;;;5053065;28;20235;-61
2022/02/09 13:15:55;;;;;;;4.60;4.10;;;9.10;99.90;;;;;;5032187;28;20248;-61
2022/02/09 13:18:36;;;;;;;4.43;4.03;;;9.10;99.90;;;;;;5032587;28;20239;-61
2022/02/09 13:22:24;;;;;;;4.17;3.80;;;9.10;99.90;;;;;;5031992;28;20232;-61
2022/02/09 13:25:29;;;;;;;4.00;3.63;;;9.10;99.90;;;;;;5051470;28;20232;-61
2022/02/09 14:07:24;;;;;;;4.80;4.33;;;9.20;99.90;;;;;;5036854;28;20240;-61
2022/02/09 14:13:05;;;;;;;5.17;4.77;;;9.20;99.90;;;;;;5029593;28;20690;-61
2022/02/09 14:15:52;;;;;;;5.33;4.70;;;9.20;99.90;;;;;;5035628;28;20712;-61
2022/02/09 14:18:42;;;;;;;5.07;4.50;;;9.20;99.90;;;;;;5031144;28;20597;-61
2022/02/09 14:52:01;;;;;;;4.80;3.67;;;9.20;99.90;;;;;;5045374;28;20261;-61
2022/02/09 14:54:33;;;;;;;4.93;4.13;;;9.20;99.90;;;;;;5022713;28;20245;-61
2022/02/09 14:57:06;;;;;;;4.20;3.80;;;9.20;99.90;;;;;;5022353;28;20750;-61
2022/02/09 14:59:49;;;;;;;4.77;3.67;;;9.10;99.90;;;;;;5045419;28;20236;-61
2022/02/09 15:02:24;;;;;;;5.03;3.70;;;9.10;99.90;;;;;;5050350;28;20250;-61
2022/02/09 15:05:39;;;;;;;5.27;3.67;;;9.10;99.90;;;;;;5050711;28;20288;-61
2022/02/09 15:08:12;;;;;;;4.30;3.90;;;9.10;99.90;;;;;;5050410;28;20247;-61
2022/02/09 15:10:47;;;;;;;4.27;3.87;;;9.10;99.90;;;;;;5050361;28;20310;-61
2022/02/09 15:16:11;;;;;;;5.27;3.90;;;9.10;99.90;;;;;;5046547;28;20646;-61
2022/02/09 15:22:02;;;;;;;4.27;3.80;;;9.10;99.90;;;;;;5045088;28;20248;-61
2022/02/09 15:24:37;;;;;;;3.67;3.33;;;9.10;99.90;;;;;;5045089;28;20254;-61
2022/02/09 15:27:07;;;;;;;3.63;3.33;;;9.10;99.90;;;;;;5045426;28;20356;-61
2022/02/09 15:29:37;;;;;;;3.30;3.10;;;9.00;99.90;;;;;;5045151;28;20243;-61
2022/02/09 15:32:13;;;;;;;3.73;3.43;;;9.00;99.90;;;;;;5047464;28;20335;-61
2022/02/09 15:34:46;;;;;;;3.90;3.60;;;9.00;99.90;;;;;;5034179;28;20248;-61
2022/02/09 15:37:20;;;;;;;3.53;3.17;;;9.00;99.90;;;;;;5033748;28;20775;-61
2022/02/09 15:39:52;;;;;;;3.37;3.07;;;9.00;99.90;;;;;;5049670;28;20239;-61
2022/02/09 15:56:25;;;;;;;2.50;2.30;;;8.80;99.90;;;;;;5029560;28;21627;-61
2022/02/09 16:10:37;;;;;;;4.07;3.07;;;8.70;99.90;;;;;;5045590;28;20313;-61
2022/02/09 16:24:27;;;;;;;6.60;4.40;;;8.60;99.90;;;;;;5026964;28;20252;-61
2022/02/09 16:38:35;;;;;;;9.50;4.87;;;8.60;99.90;;;;;;5046770;28;20232;-61
2022/02/09 16:46:39;;;;;;;10.00;5.60;;;8.50;99.90;;;;;;5048143;28;20240;-61
2022/02/09 16:49:11;;;;;;;7.90;5.20;;;8.50;99.90;;;;;;5048387;28;20331;-60
2022/02/09 16:51:46;;;;;;;11.57;5.77;;;8.50;99.90;;;;;;5048143;28;20263;-61
2022/02/09 16:54:29;;;;;;;10.53;5.37;;;8.40;99.90;;;;;;5047613;28;20289;-61
2022/02/09 16:57:08;;;;;;;9.07;5.07;;;8.40;99.90;;;;;;5047964;28;20244;-61
2022/02/09 17:18:59;;;;;;;12.87;6.63;;;8.30;99.90;;;;;;5036358;28;20297;-61
2022/02/09 17:21:29;;;;;;;10.47;6.90;;;8.30;99.90;;;;;;5049939;28;20280;-61
2022/02/09 17:24:01;;;;;;;14.83;7.57;;;8.30;99.90;;;;;;5046895;28;20236;-61
2022/02/09 17:26:30;;;;;;;11.27;6.57;;;8.30;99.90;;;;;;5046919;28;20259;-61
2022/02/09 17:29:02;;;;;;;9.57;7.27;;;8.30;99.90;;;;;;5048476;28;20699;-61
2022/02/09 17:31:39;;;;;;;13.37;7.70;;;8.30;99.90;;;;;;5042517;28;20231;-61
2022/02/09 17:53:36;;;;;;;15.90;7.83;;;8.20;99.90;;;;;;5057859;28;20235;-61
2022/02/09 17:56:09;;;;;;;15.33;8.43;;;8.10;99.90;;;;;;5049880;28;20711;-61
2022/02/09 17:58:44;;;;;;;17.10;8.07;;;8.10;99.90;;;;;;5051152;28;20286;-61
2022/02/09 18:01:16;;;;;;;13.50;7.93;;;8.10;99.90;;;;;;5064356;28;20761;-61
2022/02/09 18:03:45;;;;;;;14.83;7.90;;;8.10;99.90;;;;;;5057536;28;20239;-61
2022/02/09 18:06:21;;;;;;;14.67;8.20;;;8.10;99.90;;;;;;5034008;28;20232;-61
2022/02/09 18:08:58;;;;;;;12.67;7.63;;;8.10;99.90;;;;;;5047080;28;20254;-61
2022/02/09 18:11:46;;;;;;;12.50;8.20;;;8.10;99.90;;;;;;5051065;28;20636;-61
2022/02/09 18:25:53;;;;;;;16.67;8.37;;;8.00;99.90;;;;;;5052366;28;20246;-61
2022/02/09 18:31:11;;;;;;;17.53;8.27;;;8.00;99.90;;;;;;5050355;28;20263;-61
2022/02/09 18:34:07;;;;;;;15.77;8.17;;;7.90;99.90;;;;;;5057104;28;20228;-61
2022/02/09 18:45:15;;;;;;;14.17;7.77;;;7.90;99.90;;;;;;5043917;28;20731;-60
2022/02/09 18:47:58;;;;;;;14.73;7.40;;;7.90;99.90;;;;;;5041489;28;20331;-61
2022/02/09 19:04:26;;;;;;;17.37;7.33;;;7.70;99.90;;;;;;5023351;28;20298;-59
2022/02/09 19:15:36;;;;;;;16.73;6.60;;;7.70;99.90;;;;;;5028897;28;20251;-61
2022/02/09 19:18:17;;;;;;;15.47;7.00;;;7.70;99.90;;;;;;5028698;28;20338;-59
2022/02/09 19:20:59;;;;;;;16.20;6.13;;;7.70;99.90;;;;;;5043215;28;20263;-61
2022/02/09 19:26:22;;;;;;;13.13;7.17;;;7.60;99.90;;;;;;5035495;28;20290;-61
2022/02/09 19:29:23;;;;;;;13.87;6.17;;;7.70;99.90;;;;;;5037629;28;20315;-60
2022/02/09 19:32:07;;;;;;;15.00;6.47;;;7.70;99.90;;;;;;5043873;28;20279;-60
2022/02/09 19:40:44;;;;;;;15.63;6.23;;;7.60;99.90;;;;;;4987855;28;20280;-61
2022/02/09 19:46:11;;;;;;;16.23;6.70;;;7.60;99.90;;;;;;5016672;28;20300;-60
2022/02/09 19:48:42;;;;;;;12.63;6.67;;;7.50;99.90;;;;;;5024349;28;20244;-61
2022/02/09 19:51:18;;;;;;;15.70;6.33;;;7.50;99.90;;;;;;5025224;28;20236;-61
2022/02/09 19:54:03;;;;;;;16.13;6.73;;;7.50;99.90;;;;;;5041407;28;20267;-61
2022/02/09 19:56:34;;;;;;;22.50;7.33;;;7.40;99.90;;;;;;5029347;28;20271;-61
2022/02/09 19:59:09;;;;;;;15.23;6.63;;;7.30;99.90;;;;;;5024230;28;20609;-61
2022/02/09 20:01:38;;;;;;;18.87;6.43;;;7.30;99.90;;;;;;5024872;28;20570;-60
2022/02/09 20:04:08;;;;;;;14.33;7.10;;;7.30;99.90;;;;;;5024845;28;20247;-60
2022/02/09 20:06:37;;;;;;;15.90;7.70;;;7.30;99.90;;;;;;5024459;28;20260;-61
2022/02/09 20:09:05;;;;;;;17.73;7.07;;;7.20;99.90;;;;;;5023843;28;20249;-61
2022/02/09 20:11:38;;;;;;;19.73;7.30;;;7.20;99.90;;;;;;5025191;28;20237;-61
2022/02/09 20:14:07;;;;;;;17.33;7.37;;;7.10;99.90;;;;;;5024747;28;20279;-61
2022/02/09 20:16:35;;;;;;;18.87;6.73;;;7.10;99.90;;;;;;5024839;28;20331;-61
2022/02/09 20:19:03;;;;;;;11.43;5.83;;;7.10;99.90;;;;;;5026893;28;20340;-61
2022/02/09 20:21:32;;;;;;;15.13;6.63;;;7.00;99.90;;;;;;5028314;28;20228;-61
2022/02/09 20:24:02;;;;;;;16.13;6.97;;;7.00;99.90;;;;;;5028728;28;20276;-61
2022/02/09 20:26:31;;;;;;;16.60;6.90;;;7.00;99.90;;;;;;5028528;28;20241;-61
2022/02/09 20:29:05;;;;;;;13.60;6.67;;;6.90;99.90;;;;;;5027301;28;20271;-61
2022/02/09 20:31:41;;;;;;;12.33;5.47;;;6.90;99.90;;;;;;5028194;28;20295;-61
2022/02/09 20:34:18;;;;;;;13.13;6.23;;;6.90;99.90;;;;;;5028771;28;20240;-60
2022/02/09 20:36:46;;;;;;;14.27;6.70;;;6.90;99.90;;;;;;5047990;28;20247;-61
2022/02/09 20:39:19;;;;;;;13.10;6.13;;;6.80;99.90;;;;;;5047210;28;20250;-60
2022/02/09 20:41:47;;;;;;;13.43;6.40;;;6.90;99.90;;;;;;5047673;28;20321;-61
2022/02/09 20:44:29;;;;;;;18.90;6.83;;;6.80;99.90;;;;;;5048649;28;20252;-60
2022/02/09 20:46:58;;;;;;;14.97;6.43;;;6.80;99.90;;;;;;5046794;28;20247;-61
2022/02/09 20:49:26;;;;;;;15.40;6.23;;;6.80;99.90;;;;;;5046925;28;20251;-61
2022/02/09 20:51:54;;;;;;;12.63;6.67;;;6.80;99.90;;;;;;5047014;28;20243;-61
2022/02/09 20:54:23;;;;;;;16.83;7.10;;;6.80;99.90;;;;;;5048468;28;20223;-61
2022/02/09 20:56:51;;;;;;;14.90;6.17;;;6.70;99.90;;;;;;5047330;28;20244;-60
2022/02/09 20:59:21;;;;;;;15.03;6.13;;;6.80;99.90;;;;;;5047845;28;20247;-61
2022/02/09 21:01:56;;;;;;;16.30;6.03;;;6.80;99.90;;;;;;5047952;28;20236;-61
2022/02/09 21:04:27;;;;;;;18.77;6.60;;;6.80;99.90;;;;;;5046810;28;20599;-60
2022/02/09 21:07:05;;;;;;;17.40;6.40;;;6.90;99.90;;;;;;5047050;28;20414;-60
2022/02/09 21:09:42;;;;;;;15.40;7.80;;;6.90;99.90;;;;;;5047704;28;20274;-61
2022/02/09 21:12:24;;;;;;;18.13;7.20;;;6.80;99.90;;;;;;5047452;28;20242;-61
2022/02/09 21:15:12;;;;;;;14.33;6.30;;;6.90;99.90;;;;;;5027843;28;20274;-60
2022/02/09 21:18:08;;;;;;;14.37;5.93;;;6.90;99.90;;;;;;5026403;28;20245;-60
2022/02/09 21:23:37;;;;;;;12.00;6.63;;;6.80;99.90;;;;;;5006598;28;20315;-60
2022/02/09 21:32:15;;;;;;;13.63;7.00;;;6.70;99.90;;;;;;5047397;28;20293;-60
2022/02/09 21:54:18;;;;;;;16.00;6.70;;;6.50;99.90;;;;;;5044131;28;20645;-61
2022/02/09 21:56:51;;;;;;;12.73;5.57;;;6.50;99.90;;;;;;5046105;28;20239;-60
2022/02/09 21:59:45;;;;;;;11.33;6.57;;;6.50;99.90;;;;;;5045744;28;20240;-61
2022/02/09 22:16:31;;;;;;;13.73;6.13;;;6.50;99.90;;;;;;5046459;28;20267;-60
2022/02/09 22:19:29;;;;;;;16.77;6.87;;;6.50;99.90;;;;;;5043857;28;21178;-61
2022/02/09 22:22:28;;;;;;;15.37;6.20;;;6.50;99.90;;;;;;5046121;28;20243;-61
2022/02/09 22:27:50;;;;;;;20.57;7.77;;;6.50;99.90;;;;;;5004434;28;20776;-60
2022/02/09 22:47:35;;;;;;;17.43;8.00;;;6.30;99.90;;;;;;5043320;28;20295;-61
2022/02/09 22:50:25;;;;;;;17.63;7.83;;;6.40;99.90;;;;;;5045690;28;20239;-60
2022/02/09 22:55:44;;;;;;;16.87;8.57;;;6.60;99.90;;;;;;5045914;28;20232;-60
2022/02/09 22:58:14;;;;;;;17.27;8.20;;;6.40;99.90;;;;;;5046801;28;20240;-60
2022/02/09 23:00:53;;;;;;;17.97;8.43;;;6.40;99.90;;;;;;5046015;28;20232;-61
2022/02/09 23:03:28;;;;;;;19.27;9.50;;;6.40;99.90;;;;;;5045318;28;20236;-61
